createdAt,value
2023-04-16T00:00:08.727Z,15.15
2023-04-16T00:02:35.352Z,16.88
2023-04-16T00:05:01.975Z,13.25
2023-04-16T00:07:28.578Z,11.30
2023-04-16T00:09:55.068Z,12.82
2023-04-16T00:12:24.100Z,11.18
2023-04-16T00:14:56.383Z,12.68
2023-04-16T00:17:22.943Z,11.88
2023-04-16T00:19:49.482Z,8.95
2023-04-16T00:22:16.124Z,15.57
2023-04-16T00:24:42.707Z,11.13
2023-04-16T00:27:09.176Z,12.68
2023-04-16T00:29:35.697Z,9.32
2023-04-16T00:32:02.171Z,15.98
2023-04-16T00:34:28.673Z,9.93
2023-04-16T00:36:55.123Z,9.25
2023-04-16T00:39:21.882Z,9.95
2023-04-16T00:41:48.404Z,10.32
2023-04-16T00:44:15.080Z,10.70
2023-04-16T00:46:42.392Z,8.40
2023-04-16T00:49:10.015Z,12.73
2023-04-16T00:51:36.669Z,10.65
2023-04-16T00:54:03.695Z,10.35
2023-04-16T00:56:30.683Z,10.80
2023-04-16T00:58:57.261Z,9.55
2023-04-16T01:01:23.777Z,9.43
2023-04-16T01:03:50.491Z,10.85
2023-04-16T01:06:18.082Z,11.55
2023-04-16T01:08:45.140Z,9.80
2023-04-16T01:11:11.929Z,14.60
2023-04-16T01:13:40.353Z,11.05
2023-04-16T01:16:08.130Z,12.05
2023-04-16T01:18:35.484Z,9.38
2023-04-16T01:21:02.135Z,8.13
2023-04-16T01:23:28.650Z,15.52
2023-04-16T01:25:55.266Z,13.65
2023-04-16T01:28:21.871Z,13.88
2023-04-16T01:30:48.457Z,12.35
2023-04-16T01:33:15.644Z,12.55
2023-04-16T01:35:42.161Z,13.85
2023-04-16T01:38:09.504Z,12.38
2023-04-16T01:40:36.956Z,11.55
2023-04-16T01:43:04.384Z,13.38
2023-04-16T01:45:34.984Z,14.05
2023-04-16T01:48:02.077Z,11.85
2023-04-16T01:50:30.246Z,10.65
2023-04-16T01:52:56.804Z,12.60
2023-04-16T01:55:23.507Z,12.52
2023-04-16T01:57:50.713Z,12.07
2023-04-16T02:00:17.414Z,15.10
2023-04-16T02:02:44.032Z,13.05
2023-04-16T02:05:10.647Z,15.00
2023-04-16T02:07:37.184Z,13.48
2023-04-16T02:10:03.876Z,12.23
2023-04-16T02:12:30.380Z,14.18
2023-04-16T02:14:56.889Z,14.95
2023-04-16T02:17:23.448Z,14.98
2023-04-16T02:19:49.993Z,11.65
2023-04-16T02:22:16.487Z,12.38
2023-04-16T02:24:42.955Z,11.00
2023-04-16T02:27:09.478Z,17.98
2023-04-16T02:29:35.954Z,16.98
2023-04-16T02:32:02.575Z,13.70
2023-04-16T02:34:29.126Z,16.05
2023-04-16T02:36:55.672Z,15.50
2023-04-16T02:39:22.132Z,11.65
2023-04-16T02:41:48.638Z,16.27
2023-04-16T02:44:15.114Z,14.85
2023-04-16T02:46:41.602Z,12.48
2023-04-16T02:49:08.357Z,13.20
2023-04-16T02:51:35.099Z,16.95
2023-04-16T02:54:01.591Z,17.77
2023-04-16T02:56:28.076Z,16.35
2023-04-16T02:58:54.603Z,14.60
2023-04-16T03:01:21.139Z,16.70
2023-04-16T03:03:47.650Z,14.10
2023-04-16T03:06:14.205Z,18.38
2023-04-16T03:08:40.682Z,16.15
2023-04-16T03:11:07.168Z,18.23
2023-04-16T03:13:33.640Z,15.85
2023-04-16T03:16:00.216Z,16.65
2023-04-16T03:18:26.771Z,17.75
2023-04-16T03:20:53.571Z,20.83
2023-04-16T03:23:20.226Z,12.07
2023-04-16T03:25:46.723Z,14.00
2023-04-16T03:28:13.503Z,14.02
2023-04-16T03:30:40.022Z,17.98
2023-04-16T03:33:06.574Z,14.85
2023-04-16T03:35:33.091Z,16.60
2023-04-16T03:37:59.600Z,15.07
2023-04-16T03:40:26.139Z,19.35
2023-04-16T03:42:52.695Z,17.63
2023-04-16T03:45:19.166Z,16.95
2023-04-16T03:47:45.687Z,16.65
2023-04-16T03:50:12.248Z,19.25
2023-04-16T03:52:38.735Z,19.17
2023-04-16T03:55:05.816Z,14.43
2023-04-16T03:57:32.335Z,18.92
2023-04-16T03:59:58.866Z,18.23
2023-04-16T04:02:25.482Z,18.77
2023-04-16T04:04:52.164Z,16.30
2023-04-16T04:07:18.657Z,22.75
2023-04-16T04:09:45.160Z,19.90
2023-04-16T04:12:11.700Z,19.20
2023-04-16T04:14:38.214Z,17.92
2023-04-16T04:17:04.757Z,20.30
2023-04-16T04:19:31.310Z,21.13
2023-04-16T04:21:57.831Z,19.55
2023-04-16T04:24:24.365Z,20.83
2023-04-16T04:26:50.876Z,25.80
2023-04-16T04:29:17.349Z,18.05
2023-04-16T04:31:43.882Z,15.88
2023-04-16T04:34:10.410Z,17.27
2023-04-16T04:36:36.870Z,18.63
2023-04-16T04:39:03.427Z,17.08
2023-04-16T04:41:29.978Z,17.67
2023-04-16T04:43:56.466Z,19.98
2023-04-16T04:46:23.022Z,21.52
2023-04-16T04:48:49.571Z,12.43
2023-04-16T04:51:16.098Z,18.27
2023-04-16T04:53:42.627Z,17.92
2023-04-16T04:56:12.659Z,16.95
2023-04-16T04:58:40.330Z,19.33
2023-04-16T05:01:06.902Z,17.25
2023-04-16T05:03:33.569Z,20.38
2023-04-16T05:06:00.163Z,18.60
2023-04-16T05:08:26.626Z,16.15
2023-04-16T05:10:53.141Z,17.85
2023-04-16T05:13:19.662Z,16.77
2023-04-16T05:15:46.295Z,16.15
2023-04-16T05:18:12.835Z,16.42
2023-04-16T05:20:39.324Z,16.15
2023-04-16T05:23:05.852Z,15.88
2023-04-16T05:25:32.344Z,14.35
2023-04-16T05:27:58.869Z,16.65
2023-04-16T05:30:25.358Z,16.08
2023-04-16T05:32:51.850Z,18.17
2023-04-16T05:35:18.390Z,17.48
2023-04-16T05:37:44.927Z,16.45
2023-04-16T05:40:13.394Z,16.40
2023-04-16T05:42:39.939Z,15.48
2023-04-16T05:45:07.089Z,16.50
2023-04-16T05:47:33.633Z,19.10
2023-04-16T05:50:00.199Z,15.23
2023-04-16T05:52:26.717Z,14.20
2023-04-16T05:54:53.294Z,15.57
2023-04-16T05:57:19.768Z,12.63
2023-04-16T05:59:46.276Z,12.27
2023-04-16T06:02:12.913Z,15.60
2023-04-16T06:04:39.499Z,13.32
2023-04-16T06:07:06.017Z,13.45
2023-04-16T06:09:32.534Z,14.05
2023-04-16T06:11:59.750Z,13.48
2023-04-16T06:14:26.251Z,12.85
2023-04-16T06:16:52.740Z,12.18
2023-04-16T06:19:19.199Z,11.27
2023-04-16T06:21:45.741Z,11.60
2023-04-16T06:24:12.239Z,9.75
2023-04-16T06:26:39.030Z,13.32
2023-04-16T06:29:05.496Z,12.63
2023-04-16T06:31:32.087Z,13.02
2023-04-16T06:33:58.562Z,10.25
2023-04-16T06:36:25.066Z,13.48
2023-04-16T06:38:51.599Z,12.40
2023-04-16T06:41:18.140Z,14.15
2023-04-16T06:43:44.888Z,12.35
2023-04-16T06:46:11.472Z,14.48
2023-04-16T06:48:38.010Z,17.70
2023-04-16T06:51:04.588Z,14.10
2023-04-16T06:53:31.293Z,16.40
2023-04-16T06:55:57.813Z,17.60
2023-04-16T06:58:24.340Z,16.05
2023-04-16T07:00:50.933Z,15.40
2023-04-16T07:03:17.649Z,16.73
2023-04-16T07:05:44.243Z,16.15
2023-04-16T07:08:10.862Z,17.50
2023-04-16T07:10:38.071Z,23.30
2023-04-16T07:13:04.670Z,18.50
2023-04-16T07:15:31.199Z,18.85
2023-04-16T07:17:57.744Z,19.45
2023-04-16T07:20:24.318Z,15.48
2023-04-16T07:22:50.864Z,16.95
2023-04-16T07:25:17.387Z,17.23
2023-04-16T07:27:43.871Z,15.82
2023-04-16T07:30:10.714Z,15.55
2023-04-16T07:32:37.291Z,13.63
2023-04-16T07:35:04.031Z,16.02
2023-04-16T07:37:30.575Z,19.55
2023-04-16T07:39:57.470Z,14.50
2023-04-16T07:42:24.087Z,17.77
2023-04-16T07:44:50.619Z,19.45
2023-04-16T07:47:17.128Z,17.83
2023-04-16T07:49:43.598Z,21.00
2023-04-16T07:52:10.193Z,15.80
2023-04-16T07:54:36.740Z,16.85
2023-04-16T07:57:03.316Z,14.45
2023-04-16T07:59:30.137Z,17.30
2023-04-16T08:01:56.996Z,18.40
2023-04-16T08:04:23.631Z,21.45
2023-04-16T08:06:51.215Z,23.05
2023-04-16T08:09:19.722Z,18.88
2023-04-16T08:11:46.250Z,25.77
2023-04-16T08:14:12.745Z,32.85
2023-04-16T08:16:39.284Z,35.58
2023-04-16T08:19:05.808Z,33.55
2023-04-16T08:21:33.068Z,29.65
2023-04-16T08:23:59.650Z,30.27
2023-04-16T08:26:26.186Z,26.13
2023-04-16T08:28:52.686Z,27.98
2023-04-16T08:31:19.228Z,26.08
2023-04-16T08:33:45.851Z,29.92
2023-04-16T08:36:12.419Z,31.02
2023-04-16T08:38:38.888Z,29.55
2023-04-16T08:41:09.045Z,24.13
2023-04-16T08:43:38.552Z,25.45
2023-04-16T08:46:05.973Z,23.75
2023-04-16T08:48:34.739Z,28.00
2023-04-16T08:51:02.543Z,30.88
2023-04-16T08:53:58.928Z,25.02
2023-04-16T08:56:26.511Z,24.75
2023-04-16T08:58:54.835Z,33.05
2023-04-16T09:01:22.078Z,28.95
2023-04-16T09:03:48.978Z,29.02
2023-04-16T09:06:16.926Z,20.80
2023-04-16T09:08:44.834Z,25.30
2023-04-16T09:11:13.594Z,22.58
2023-04-16T09:13:40.209Z,25.83
2023-04-16T09:16:07.843Z,23.70
2023-04-16T09:18:34.602Z,21.42
2023-04-16T09:21:01.180Z,18.58
2023-04-16T09:23:28.055Z,26.30
2023-04-16T09:25:54.716Z,20.48
2023-04-16T09:28:41.291Z,23.25
2023-04-16T09:31:11.771Z,22.52
2023-04-16T09:33:38.253Z,22.60
2023-04-16T09:36:05.499Z,22.42
2023-04-16T09:38:49.140Z,20.00
2023-04-16T09:41:15.926Z,19.20
2023-04-16T09:43:53.694Z,19.90
2023-04-16T09:46:20.266Z,22.92
2023-04-16T09:48:46.901Z,19.52
2023-04-16T09:51:13.474Z,18.48
2023-04-16T09:53:40.034Z,15.52
2023-04-16T09:56:07.029Z,18.67
2023-04-16T09:58:36.516Z,21.95
2023-04-16T10:01:11.052Z,20.17
2023-04-16T10:03:39.600Z,21.25
2023-04-16T10:06:14.600Z,18.77
2023-04-16T10:08:51.468Z,16.67
2023-04-16T10:11:18.887Z,18.65
2023-04-16T10:13:45.746Z,17.13
2023-04-16T10:16:12.832Z,17.45
2023-04-16T10:18:44.234Z,16.65
2023-04-16T10:21:11.482Z,14.88
2023-04-16T10:23:39.447Z,18.77
2023-04-16T10:26:06.245Z,18.45
2023-04-16T14:59:51.867Z,20.23
2023-04-16T15:02:18.524Z,18.33
2023-04-16T15:04:45.628Z,24.55
2023-04-16T15:07:12.151Z,24.80
2023-04-16T15:09:38.695Z,22.48
2023-04-16T15:12:05.295Z,25.73
2023-04-16T15:14:31.857Z,22.30
2023-04-16T15:16:58.472Z,23.23
2023-04-16T15:19:25.750Z,25.40
2023-04-16T15:21:52.336Z,27.45
2023-04-16T15:24:18.853Z,23.35
2023-04-16T15:26:45.347Z,24.73
2023-04-16T15:29:11.847Z,28.17
2023-04-16T15:31:38.313Z,25.48
2023-04-16T15:34:04.794Z,30.85
2023-04-16T15:36:31.349Z,26.75
2023-04-16T15:38:57.821Z,26.00
2023-04-16T15:41:24.692Z,31.88
2023-04-16T15:43:51.239Z,25.10
2023-04-16T15:46:17.784Z,28.00
2023-04-16T15:48:44.331Z,29.13
2023-04-16T15:51:11.236Z,23.42
2023-04-16T15:53:37.801Z,27.88
2023-04-16T15:56:04.413Z,26.27
2023-04-16T15:58:30.942Z,28.25
2023-04-16T16:00:57.459Z,28.02
2023-04-16T16:03:24.127Z,25.98
2023-04-16T16:05:50.779Z,25.30
2023-04-16T16:08:17.375Z,28.15
2023-04-16T16:10:43.909Z,28.10
2023-04-16T16:13:10.449Z,25.77
2023-04-16T16:15:38.242Z,28.63
2023-04-16T16:18:04.787Z,24.63
2023-04-16T16:20:31.300Z,29.85
2023-04-16T16:22:57.769Z,28.33
2023-04-16T16:25:24.321Z,23.27
2023-04-16T16:27:51.035Z,27.05
2023-04-16T16:30:17.518Z,26.75
2023-04-16T16:32:44.080Z,30.83
2023-04-16T16:35:11.351Z,27.40
2023-04-16T16:37:38.406Z,31.67
2023-04-16T16:40:05.572Z,32.97
2023-04-16T16:42:32.143Z,30.98
2023-04-16T16:44:58.667Z,29.25
2023-04-16T16:47:25.214Z,28.95
2023-04-16T16:49:51.765Z,23.65
2023-04-16T16:52:18.268Z,27.10
2023-04-16T16:54:44.892Z,23.85
2023-04-16T16:57:12.179Z,26.00
2023-04-16T16:59:38.655Z,24.50
2023-04-16T17:02:06.251Z,26.17
2023-04-16T17:04:32.926Z,23.10
2023-04-16T17:06:59.520Z,26.27
2023-04-16T17:09:26.047Z,24.80
2023-04-16T17:11:52.576Z,25.60
2023-04-16T17:14:19.390Z,22.67
2023-04-16T17:16:46.016Z,23.23
2023-04-16T17:19:17.592Z,21.70
2023-04-16T17:21:46.753Z,29.75
2023-04-16T17:24:14.107Z,31.70
2023-04-16T17:29:18.242Z,29.33
2023-04-16T17:31:44.809Z,26.58
2023-04-16T17:34:11.696Z,23.92
2023-04-16T17:36:41.055Z,25.90
2023-04-16T17:39:10.779Z,28.67
2023-04-16T17:41:37.430Z,24.08
2023-04-16T17:44:03.935Z,27.00
2023-04-16T17:46:30.524Z,25.83
2023-04-16T17:48:57.118Z,28.38
2023-04-16T17:51:23.699Z,22.73
2023-04-16T17:53:50.283Z,21.50
2023-04-16T17:56:16.851Z,21.25
2023-04-16T17:58:43.413Z,22.40
2023-04-16T18:01:10.267Z,23.45
2023-04-16T18:03:39.600Z,20.75
2023-04-16T18:06:06.497Z,43.47
2023-04-16T18:08:33.198Z,22.35
2023-04-16T18:10:59.722Z,24.70
2023-04-16T18:13:29.047Z,20.67
2023-04-16T18:15:55.709Z,22.15
2023-04-16T18:18:22.252Z,24.25
2023-04-16T18:20:48.800Z,22.88
2023-04-16T18:23:15.471Z,24.92
2023-04-16T18:25:41.989Z,24.23
2023-04-16T18:28:08.556Z,20.55
2023-04-16T18:30:35.130Z,22.40
2023-04-16T18:35:31.227Z,23.05
2023-04-16T18:37:57.808Z,24.10
2023-04-16T18:40:24.286Z,27.58
2023-04-16T18:42:50.795Z,26.67
2023-04-16T18:45:21.963Z,21.67
2023-04-16T18:47:48.783Z,23.45
2023-04-16T18:50:16.928Z,25.40
2023-04-16T18:52:44.713Z,24.45
2023-04-16T18:55:11.709Z,23.40
2023-04-16T18:57:40.645Z,25.33
2023-04-16T19:00:07.950Z,28.40
2023-04-16T19:02:34.805Z,21.92
2023-04-16T19:05:01.362Z,22.10
2023-04-16T19:07:28.018Z,23.98
2023-04-16T19:09:57.348Z,27.75
2023-04-16T19:12:24.079Z,23.48
2023-04-16T19:14:50.709Z,22.85
2023-04-16T19:17:17.617Z,25.90
2023-04-16T19:19:46.239Z,23.30
2023-04-16T19:22:14.055Z,25.88
2023-04-16T19:24:40.697Z,21.02
2023-04-16T19:27:07.263Z,22.95
2023-04-16T19:29:34.609Z,23.80
2023-04-16T19:32:03.925Z,23.63
2023-04-16T19:34:30.530Z,21.48
2023-04-16T19:36:57.099Z,25.58
2023-04-16T19:39:27.037Z,26.20
2023-04-16T19:44:19.960Z,21.65
2023-04-16T19:46:46.501Z,21.10
2023-04-16T19:49:13.225Z,25.13
2023-04-16T19:51:39.899Z,23.75
2023-04-16T19:54:06.427Z,28.23
2023-04-16T19:56:32.938Z,26.65
2023-04-16T19:58:59.479Z,25.13
2023-04-16T20:01:25.999Z,25.33
2023-04-16T20:03:52.508Z,25.70
2023-04-16T20:06:19.056Z,19.05
2023-04-16T20:08:45.573Z,22.35
2023-04-16T20:11:12.062Z,25.73
2023-04-16T20:13:38.584Z,25.95
2023-04-16T20:16:05.357Z,26.63
2023-04-16T20:18:31.877Z,27.67
2023-04-16T20:21:03.401Z,25.92
2023-04-16T20:23:29.909Z,25.38
2023-04-16T20:25:56.491Z,22.88
2023-04-16T20:28:23.125Z,28.70
2023-04-16T20:30:49.804Z,26.27
2023-04-16T20:33:16.754Z,24.23
2023-04-16T20:35:43.255Z,22.77
2023-04-16T20:38:09.798Z,23.17
2023-04-16T20:40:36.336Z,23.73
2023-04-16T20:43:02.902Z,27.85
2023-04-16T20:45:30.421Z,27.67
2023-04-16T20:47:56.940Z,28.65
2023-04-16T20:50:23.465Z,28.88
2023-04-16T20:52:49.978Z,30.75
2023-04-16T20:55:16.700Z,24.58
2023-04-16T20:57:43.352Z,27.95
2023-04-16T21:00:10.270Z,28.83
2023-04-16T21:02:36.887Z,26.15
2023-04-16T21:05:03.733Z,29.13
2023-04-16T21:07:30.245Z,28.27
2023-04-16T21:09:56.732Z,30.00
2023-04-16T21:12:23.227Z,30.10
2023-04-16T21:14:49.747Z,28.42
2023-04-16T21:17:16.281Z,24.80
2023-04-16T21:19:42.839Z,27.40
2023-04-16T21:22:09.478Z,32.75
2023-04-16T21:24:35.959Z,26.70
2023-04-16T21:27:02.591Z,27.38
2023-04-16T21:29:29.311Z,30.80
2023-04-16T21:31:55.935Z,27.85
2023-04-16T21:34:22.532Z,28.42
2023-04-16T21:36:49.021Z,29.45
2023-04-16T21:39:15.652Z,24.25
2023-04-16T21:41:42.120Z,23.83
2023-04-16T21:44:08.716Z,22.85
2023-04-16T21:46:35.220Z,22.95
2023-04-16T21:49:01.722Z,23.98
2023-04-16T21:51:28.255Z,25.65
2023-04-16T21:53:58.242Z,24.77
2023-04-16T21:56:25.262Z,23.20
2023-04-16T21:58:51.817Z,25.85
2023-04-16T22:01:18.421Z,22.75
2023-04-16T22:03:45.094Z,30.90
2023-04-16T22:06:11.808Z,21.73
2023-04-16T22:08:38.312Z,26.15
2023-04-16T22:11:04.870Z,23.67
2023-04-16T22:13:31.534Z,23.00
2023-04-16T22:15:58.630Z,23.33
2023-04-16T22:18:25.192Z,24.05
2023-04-16T22:20:53.293Z,24.88
2023-04-16T22:23:19.956Z,25.83
2023-04-16T22:25:46.499Z,28.67
2023-04-16T22:28:12.996Z,23.48
2023-04-16T22:30:39.524Z,25.95
2023-04-16T22:33:06.063Z,24.63
2023-04-16T22:35:33.044Z,25.70
2023-04-16T22:37:59.630Z,29.23
2023-04-16T22:40:26.193Z,29.80
2023-04-16T22:42:52.728Z,23.75
2023-04-16T22:45:19.247Z,26.25
2023-04-16T22:47:45.797Z,24.50
2023-04-16T22:50:12.356Z,29.42
2023-04-16T22:52:38.853Z,28.83
2023-04-16T22:55:05.839Z,29.17
2023-04-16T22:57:32.673Z,30.27
2023-04-16T22:59:59.152Z,30.17
2023-04-16T23:02:25.788Z,30.27
2023-04-16T23:04:52.341Z,29.23
2023-04-16T23:07:18.862Z,30.55
2023-04-16T23:09:45.464Z,34.63
2023-04-16T23:12:11.952Z,29.60
2023-04-16T23:14:38.451Z,35.95
2023-04-16T23:17:05.002Z,32.53
2023-04-16T23:19:31.540Z,33.17
2023-04-16T23:21:58.033Z,33.72
2023-04-16T23:24:24.683Z,31.25
2023-04-16T23:26:51.199Z,38.25
2023-04-16T23:29:17.771Z,33.55
2023-04-16T23:31:44.325Z,36.63
2023-04-16T23:34:10.856Z,32.33
